Airfield :
LOGIN :

Register | Disclaimer

   EN    FR    IT 

 










Legend :    VFR   Marginal VFR   IFR   Intensive IFR   Very Intensive IFR
Visi :
Ceiling :
>= 8 km
>= 3000ft
5 to 8 km
1000 to 3000 ft
1500m to 5 km
500 to 1000 ft
800 to 1500m
200 to 500 ft
< 800m
< 200 ft
Symbols :   Thunderstorms  Fog  Heavy snow  Heavy precipitations  Wind > 20 kt
SIGMETs :     Misc.  Thunderstorms  Icing  Turbulence  Mountain Waves  Volcanic Ashes







- Airport Elevation : 53 ft
- IATA code : HAM


EDDH - Hamburg

CURRENT METAR :
  • 211620Z 17004KT 0800 0600SE R23/1800N R15/P2000N FZFG OVC001 M00/M01 Q1017 R88/190195 TEMPO 0500

EXPIRED METARs :
  • 211550Z 16005KT 130V190 1100 0700N R23/P2000N R15/P2000N PRFG BR BKN001 OVC002 M00/M01 Q1016 R88/190195 TEMPO 0700 FZFG
  • 211520Z 16005KT 130V190 1400 1000E R23/P2000N R15/1900N VCFG BR BKN001 OVC002 M00/M01 Q1016 R88/190195 TEMPO 1600 SCT001
  • 211450Z 15004KT 1500 1000NE R23/P2000N R15/P2000N VCFG BR BKN001 OVC003 M00/M01 Q1016 R88/190195 TEMPO 1200 SCT001
  • 211420Z 17003KT 140V220 1500 1000N R23/P2000N R15/0500N VCFG BR BKN001 BKN004 00/M00 Q1016 R88/190195 TEMPO 1200 BKN004
  • 211350Z VRB02KT 1000 0400NW R23/1000VP2000U R15/0550N PRFG SCT001 BKN004 00/M00 Q1015 R88/110195 TEMPO 1500 BKN001

TAF AMD TAF EDDH
Valid from the 21 at 15:00 until the 22 at 18:00 UTC


211519Z 2115/2218 14006KT 1200 BR OVC001
TEMPO 2115/2122 0700 FZFG
PROB40
TEMPO 2115/2120 3500 BKN005
BECMG 2122/2124 6000 BKN015
BECMG 2208/2210 BKN008
TEMPO 2208/2218 2000 -SN OVC004
No reported NOTAMs for that airfield.



MET'MAP, your aeronautical weather chart ! - Copyright ORBIFLY December 2007 - Disclaimer

ORBIFLY MET'MAP TEAM :

Programming & Development : Alexandra Zaïnal
Concept & Development : Baudouin d'Aumeries
Co-Development & Prog : Marc-Olivier Méhu
Technical & hardware support : Manuel Goepfert

Contact : metmap@orbifly.com




SOURCES & CREDITS :

   NOAA